Terminal Aerodrome Forecast
Issued by NWS

Home | Current Version | Previous Version | Text Only | Print | Product List | Glossary On
Versions: 1 2 3 4 5 6 7 8 9 10 11 12 13
032
FTUS43 KGRB 130520
TAFATW
TAF
KATW 130520Z 1306/1406 29012KT P6SM SKC
     FM131800 27005KT P6SM SCT200
     FM140000 VRB03KT P6SM SCT200=

USA.gov is the U.S. government's official web portal to all federal, state and local government web resources and services.